Time;durP1;ratioP1;P1;durP2;ratioP2;P2;SDS_P1;SDS_P2;PMS_P1;PMS_P2;Temp;Humidity;BMP_temperature;BMP_pressure;BME280_temperature;BME280_humidity;BME280_pressure;Samples;Min_cycle;Max_cycle;Signal;HPM_P1;HPM_P2
2020/12/29 00:02:11;;;;;;;5.00;4.50;;;;;;;2.02;87.80;96812.38;5119364;28;20783;-70
2020/12/29 00:04:37;;;;;;;4.03;3.70;;;;;;;2.06;87.26;96811.03;5113303;28;20985;-69
2020/12/29 00:07:05;;;;;;;5.83;5.13;;;;;;;1.90;88.22;96803.22;5120759;28;20466;-70
2020/12/29 00:09:31;;;;;;;5.57;4.47;;;;;;;1.93;88.29;96807.28;5122428;28;20430;-69
2020/12/29 00:11:57;;;;;;;4.87;4.43;;;;;;;1.85;88.39;96797.63;5117836;28;20478;-69
2020/12/29 00:14:24;;;;;;;5.07;4.57;;;;;;;1.96;87.90;96799.06;5112817;28;20471;-69
2020/12/29 00:16:50;;;;;;;5.87;4.97;;;;;;;2.00;86.96;96803.81;5112166;28;20485;-69
2020/12/29 00:19:22;;;;;;;4.60;4.20;;;;;;;1.98;87.63;96813.72;5115236;28;20497;-69
2020/12/29 00:21:48;;;;;;;5.10;4.70;;;;;;;2.06;87.62;96811.03;5119249;28;20486;-69
2020/12/29 00:24:15;;;;;;;4.77;4.30;;;;;;;2.19;87.04;96807.84;5121897;28;20466;-70
2020/12/29 00:26:41;;;;;;;5.23;4.73;;;;;;;2.16;87.29;96810.81;5114102;28;20485;-69
2020/12/29 00:29:08;;;;;;;4.23;3.83;;;;;;;2.20;86.17;96806.03;5121062;28;20426;-69
2020/12/29 00:31:34;;;;;;;4.67;4.00;;;;;;;2.12;86.51;96801.63;5120488;28;20499;-70
2020/12/29 00:34:02;;;;;;;3.90;3.60;;;;;;;2.12;86.05;96801.63;5121617;28;20942;-70
2020/12/29 00:36:30;;;;;;;3.43;3.13;;;;;;;2.16;86.41;96796.84;5127211;28;20491;-70
2020/12/29 00:38:56;;;;;;;4.70;4.30;;;;;;;2.07;86.29;96796.06;5121662;28;20458;-69
2020/12/29 00:41:23;;;;;;;5.80;4.17;;;;;;;2.19;85.86;96793.88;5118178;28;20502;-69
2020/12/29 00:43:49;;;;;;;3.70;3.10;;;;;;;2.06;86.17;96792.59;5122281;28;20456;-69
2020/12/29 00:46:16;;;;;;;6.23;5.47;;;;;;;2.04;87.60;96797.22;5116625;28;20520;-70
2020/12/29 00:48:43;;;;;;;3.40;3.10;;;;;;;1.86;87.59;96783.47;5123536;28;20426;-70
2020/12/29 00:51:10;;;;;;;4.40;4.00;;;;;;;1.69;88.38;96783.53;5131673;27;20516;-71
2020/12/29 00:53:38;;;;;;;4.87;3.90;;;;;;;1.52;88.72;96779.31;5125065;28;20430;-67
2020/12/29 00:56:06;;;;;;;4.30;3.90;;;;;;;1.35;89.75;96785.59;5123447;28;20493;-67
2020/12/29 00:58:32;;;;;;;4.17;3.77;;;;;;;1.27;90.32;96776.75;5125282;28;20430;-68
2020/12/29 01:00:58;;;;;;;4.33;3.93;;;;;;;1.19;90.49;96781.19;5117852;28;20473;-68
2020/12/29 01:03:25;;;;;;;3.93;3.60;;;;;;;1.12;91.10;96788.94;5125112;28;20446;-67
2020/12/29 01:05:52;;;;;;;4.70;3.60;;;;;;;1.09;91.03;96791.88;5122351;28;21074;-67
2020/12/29 01:08:18;;;;;;;5.00;3.90;;;;;;;1.07;91.15;96801.75;5124577;28;20430;-67
2020/12/29 01:10:45;;;;;;;6.03;4.70;;;;;;;1.08;91.28;96798.16;5122832;28;20484;-67
2020/12/29 01:13:13;;;;;;;4.60;4.10;;;;;;;1.10;91.43;96796.16;5124447;28;20431;-68
2020/12/29 01:15:39;;;;;;;6.90;5.27;;;;;;;1.09;91.39;96800.63;5121874;28;20456;-67
2020/12/29 01:18:05;;;;;;;6.17;5.00;;;;;;;1.24;91.26;96806.00;5124793;28;20441;-67
2020/12/29 01:20:32;;;;;;;5.47;4.93;;;;;;;1.34;91.29;96805.00;5114273;28;20454;-67
2020/12/29 01:22:58;;;;;;;5.73;5.13;;;;;;;1.38;90.68;96801.88;5124163;28;20438;-68
2020/12/29 01:25:24;;;;;;;6.40;4.70;;;;;;;1.40;90.14;96813.06;5122874;28;20471;-68
2020/12/29 01:27:51;;;;;;;6.43;4.87;;;;;;;1.54;89.75;96813.38;5123776;28;20474;-67
2020/12/29 01:30:18;;;;;;;5.80;5.20;;;;;;;1.56;89.02;96811.38;5122015;28;20474;-68
2020/12/29 01:32:44;;;;;;;5.03;4.63;;;;;;;1.56;89.13;96817.47;5121095;28;20465;-67
2020/12/29 01:35:10;;;;;;;5.90;4.63;;;;;;;1.70;87.92;96802.78;5128308;27;20484;-68
2020/12/29 01:37:37;;;;;;;5.00;4.50;;;;;;;1.68;88.38;96817.91;5134565;27;20470;-67
2020/12/29 01:40:04;;;;;;;4.20;3.80;;;;;;;1.75;88.25;96813.63;5124098;28;20431;-68
2020/12/29 01:42:30;;;;;;;4.80;4.40;;;;;;;1.84;86.85;96809.97;5116284;28;20491;-69
2020/12/29 01:44:58;;;;;;;5.30;4.67;;;;;;;1.81;87.02;96817.41;5122811;28;20497;-70
2020/12/29 01:47:25;;;;;;;5.27;4.77;;;;;;;1.72;87.32;96811.34;5122216;28;20514;-69
2020/12/29 01:49:52;;;;;;;4.60;4.20;;;;;;;1.68;87.62;96816.13;5127146;27;20465;-69
2020/12/29 01:52:18;;;;;;;11.03;4.20;;;;;;;1.55;88.19;96817.66;5138244;27;20972;-69
2020/12/29 01:54:44;;;;;;;5.20;4.70;;;;;;;1.45;88.31;96815.19;5144437;27;20429;-69
2020/12/29 01:57:11;;;;;;;7.00;4.60;;;;;;;1.35;88.98;96812.72;5123641;27;20478;-69
2020/12/29 01:59:38;;;;;;;4.80;4.30;;;;;;;1.27;88.86;96818.03;5123548;28;20474;-69
2020/12/29 02:02:05;;;;;;;6.00;4.00;;;;;;;1.23;89.54;96811.44;5122351;28;20733;-67
2020/12/29 02:04:31;;;;;;;5.03;4.47;;;;;;;1.28;90.08;96819.66;5114963;28;20514;-67
2020/12/29 02:06:58;;;;;;;5.37;4.67;;;;;;;1.37;89.16;96828.34;5121670;28;20518;-67
2020/12/29 02:09:24;;;;;;;6.40;4.30;;;;;;;1.41;88.49;96819.97;5123695;28;20481;-67
2020/12/29 02:11:50;;;;;;;4.20;3.90;;;;;;;1.39;88.90;96831.63;5122220;27;20530;-67
2020/12/29 02:14:16;;;;;;;4.90;4.50;;;;;;;1.42;89.37;96826.84;5116342;28;20497;-67
2020/12/29 02:16:44;;;;;;;4.80;4.40;;;;;;;1.40;89.26;96823.56;5119534;28;20509;-68
2020/12/29 02:19:11;;;;;;;4.90;4.50;;;;;;;1.36;89.73;96827.53;5116109;28;20463;-68
2020/12/29 02:21:38;;;;;;;4.47;4.07;;;;;;;1.36;89.77;96821.47;5119593;28;20470;-67
2020/12/29 02:24:05;;;;;;;4.30;3.90;;;;;;;1.33;89.89;96821.78;5123560;27;20449;-67
2020/12/29 02:26:33;;;;;;;5.27;4.70;;;;;;;1.34;89.93;96820.78;5121101;28;20472;-67
2020/12/29 02:29:00;;;;;;;6.30;5.70;;;;;;;1.28;89.88;96819.66;5121768;28;20478;-67
2020/12/29 02:31:26;;;;;;;5.30;4.80;;;;;;;1.22;89.84;96829.03;5114355;28;20470;-67
2020/12/29 02:33:53;;;;;;;6.20;4.97;;;;;;;1.30;88.90;96826.41;5117279;28;20473;-69
2020/12/29 02:36:19;;;;;;;4.90;4.40;;;;;;;1.29;88.53;96826.56;5120347;28;20476;-69
2020/12/29 02:38:45;;;;;;;5.20;4.40;;;;;;;1.42;88.40;96833.94;5123245;28;20438;-70
2020/12/29 02:41:12;;;;;;;4.97;4.57;;;;;;;1.30;88.19;96839.56;5121269;28;20504;-69
2020/12/29 02:43:39;;;;;;;4.50;4.10;;;;;;;1.39;87.53;96847.44;5121738;27;20444;-69
2020/12/29 02:46:05;;;;;;;4.40;4.00;;;;;;;1.39;87.54;96853.53;5120898;28;20486;-69
2020/12/29 02:48:31;;;;;;;5.03;4.33;;;;;;;1.33;87.68;96856.81;5122380;28;20454;-69
2020/12/29 02:50:57;;;;;;;4.70;4.23;;;;;;;1.34;88.10;96860.25;5133232;27;20469;-69
2020/12/29 02:53:23;;;;;;;5.53;4.90;;;;;;;1.29;87.85;96868.69;5125203;27;20496;-69
2020/12/29 02:55:49;;;;;;;6.00;5.13;;;;;;;1.33;88.16;96866.53;5121010;28;20893;-69
2020/12/29 02:58:16;;;;;;;5.13;4.27;;;;;;;1.43;88.16;96867.19;5121880;28;20438;-69
2020/12/29 03:00:43;;;;;;;4.03;3.70;;;;;;;1.59;87.89;96882.13;5116174;28;20497;-70
2020/12/29 03:03:09;;;;;;;4.47;4.07;;;;;;;1.42;87.85;96878.69;5122557;28;20475;-69
2020/12/29 03:05:35;;;;;;;5.10;4.70;;;;;;;1.48;87.02;96878.84;5120668;28;20517;-69
2020/12/29 03:08:01;;;;;;;4.10;3.70;;;;;;;1.53;86.61;96875.72;5120357;27;20489;-69
2020/12/29 03:10:27;;;;;;;3.33;3.03;;;;;;;1.47;86.91;96882.47;5116851;28;20470;-69
2020/12/29 03:12:53;;;;;;;4.00;3.60;;;;;;;1.56;86.20;96887.72;5117786;28;20821;-69
2020/12/29 03:15:20;;;;;;;4.90;3.80;;;;;;;1.50;86.39;96879.50;5118396;28;20501;-69
2020/12/29 03:17:46;;;;;;;4.13;3.60;;;;;;;1.53;85.69;96882.78;5122493;28;20446;-69
2020/12/29 03:20:13;;;;;;;3.83;3.47;;;;;;;1.58;85.74;96883.09;5112536;28;20447;-69
2020/12/29 03:22:39;;;;;;;4.37;3.97;;;;;;;1.65;85.28;96884.94;5122319;28;20446;-69
2020/12/29 03:25:05;;;;;;;4.60;3.50;;;;;;;1.57;85.03;96892.81;5120799;28;20498;-69
2020/12/29 03:27:31;;;;;;;4.20;3.77;;;;;;;1.59;84.87;96896.13;5121531;28;20503;-69
2020/12/29 03:29:57;;;;;;;3.60;3.30;;;;;;;1.66;84.72;96901.53;5117990;28;20457;-69
2020/12/29 03:32:24;;;;;;;6.03;4.40;;;;;;;1.57;84.91;96905.19;5136089;27;20489;-69
2020/12/29 03:34:50;;;;;;;4.47;4.07;;;;;;;1.49;84.97;96906.84;5131125;27;20480;-69
2020/12/29 03:37:16;;;;;;;4.47;4.00;;;;;;;1.56;84.89;96895.63;5120728;28;20494;-69
2020/12/29 03:39:43;;;;;;;3.90;3.50;;;;;;;1.60;84.38;96895.13;5121754;28;20434;-69
2020/12/29 03:42:09;;;;;;;4.13;3.73;;;;;;;1.60;84.89;96902.22;5120309;28;20561;-69
2020/12/29 03:44:35;;;;;;;3.63;3.30;;;;;;;1.61;84.61;96899.41;5120541;28;21004;-69
2020/12/29 03:47:02;;;;;;;3.77;3.40;;;;;;;1.75;83.90;96897.88;5120724;28;20488;-69
2020/12/29 03:49:29;;;;;;;3.60;3.30;;;;;;;1.75;84.25;96903.16;5113762;28;20463;-69
2020/12/29 03:51:55;;;;;;;3.80;3.40;;;;;;;1.75;83.08;96907.63;5131854;28;20508;-69
2020/12/29 03:54:21;;;;;;;4.30;3.87;;;;;;;1.71;82.81;96912.41;5126950;28;20449;-69
2020/12/29 03:56:47;;;;;;;4.40;3.60;;;;;;;1.83;82.73;96900.50;5120090;28;20470;-68
2020/12/29 03:59:13;;;;;;;4.10;3.80;;;;;;;1.78;83.02;96905.47;5121651;28;20442;-69
2020/12/29 04:01:39;;;;;;;4.63;3.60;;;;;;;1.92;81.04;96905.78;5119980;28;20509;-69
2020/12/29 04:04:06;;;;;;;3.80;3.50;;;;;;;1.86;82.04;96902.00;5119283;28;20572;-69
2020/12/29 04:06:33;;;;;;;3.67;3.30;;;;;;;1.85;81.97;96913.53;5119158;28;20482;-69
2020/12/29 04:08:59;;;;;;;3.83;3.43;;;;;;;1.86;82.30;96908.09;5121769;28;20438;-69
2020/12/29 04:11:25;;;;;;;3.57;3.23;;;;;;;1.78;82.13;96904.66;5114279;28;20485;-69
2020/12/29 04:13:51;;;;;;;4.20;3.70;;;;;;;1.91;82.62;96919.94;5120884;28;20482;-69
2020/12/29 04:16:20;;;;;;;4.17;3.77;;;;;;;1.95;83.89;96915.97;5115964;28;20490;-69
2020/12/29 04:18:46;;;;;;;4.10;3.70;;;;;;;2.02;84.03;96914.31;5122148;28;20476;-69
2020/12/29 04:21:12;;;;;;;3.47;3.17;;;;;;;2.08;84.38;96916.25;5123706;28;20470;-69
2020/12/29 04:23:39;;;;;;;5.20;3.50;;;;;;;1.87;85.50;96912.38;5120238;28;20487;-69
2020/12/29 04:26:05;;;;;;;3.60;3.30;;;;;;;1.87;85.80;96915.00;5123913;27;20554;-69
2020/12/29 04:28:31;;;;;;;4.60;4.20;;;;;;;1.69;86.10;96917.81;5120766;28;20995;-69
2020/12/29 04:30:57;;;;;;;3.20;2.97;;;;;;;1.66;86.21;96917.34;5123343;28;20477;-68
2020/12/29 04:33:24;;;;;;;3.70;3.30;;;;;;;1.68;85.54;96907.44;5125367;28;20429;-69
2020/12/29 04:35:50;;;;;;;4.60;4.20;;;;;;;1.44;86.44;96913.56;5116065;28;20485;-69
2020/12/29 04:38:16;;;;;;;4.33;3.87;;;;;;;1.25;87.11;96912.06;5125292;28;20450;-69
2020/12/29 04:40:43;;;;;;;4.80;4.30;;;;;;;1.10;88.35;96911.94;5115313;28;20909;-68
2020/12/29 04:43:10;;;;;;;4.97;4.47;;;;;;;0.91;88.09;96915.69;5124801;28;20469;-69
2020/12/29 04:45:36;;;;;;;3.73;3.43;;;;;;;0.82;88.62;96919.28;5122132;27;20473;-68
2020/12/29 04:48:02;;;;;;;4.07;3.67;;;;;;;0.61;89.00;96925.81;5125600;28;20456;-69
2020/12/29 04:50:30;;;;;;;4.00;3.60;;;;;;;0.44;89.64;96927.53;5123010;28;20498;-69
2020/12/29 04:52:58;;;;;;;5.33;3.80;;;;;;;0.37;90.39;96926.53;5124820;28;20434;-69
2020/12/29 04:55:29;;;;;;;4.30;3.90;;;;;;;0.22;90.08;96923.66;5123121;27;20542;-68
2020/12/29 04:57:56;;;;;;;4.20;3.80;;;;;;;-0.01;90.30;96932.09;5124775;28;20450;-68
2020/12/29 05:00:23;;;;;;;5.47;4.87;;;;;;;-0.10;90.85;96929.59;5120157;28;20458;-69
2020/12/29 05:02:49;;;;;;;5.23;4.73;;;;;;;0.00;91.33;96932.94;5125305;28;20509;-69
2020/12/29 05:05:16;;;;;;;7.97;5.00;;;;;;;0.01;91.21;96931.94;5116558;28;20492;-68
2020/12/29 05:07:43;;;;;;;5.27;4.63;;;;;;;0.04;91.08;96936.09;5122599;28;20474;-69
2020/12/29 05:10:09;;;;;;;5.43;4.73;;;;;;;-0.06;91.03;96934.38;5122992;28;20469;-69
2020/12/29 05:12:49;;;;;;;5.20;4.70;;;;;;;-0.16;91.11;96938.09;5124471;28;20489;-69
2020/12/29 05:15:17;;;;;;;5.53;4.60;;;;;;;-0.12;91.78;96944.66;5096921;28;20502;-69
2020/12/29 05:17:43;;;;;;;5.37;4.80;;;;;;;-0.21;91.29;96946.41;5104047;28;20451;-69
2020/12/29 05:20:09;;;;;;;5.23;4.47;;;;;;;-0.27;90.91;96950.47;5115062;28;20453;-68
2020/12/29 05:22:40;;;;;;;5.97;4.70;;;;;;;-0.39;91.47;96957.78;5108179;28;20463;-69
2020/12/29 05:25:07;;;;;;;6.40;5.73;;;;;;;-0.45;91.43;96958.41;5114834;28;20539;-66
2020/12/29 05:27:37;;;;;;;6.50;5.10;;;;;;;-0.45;91.84;96958.41;5121501;28;20481;-67
2020/12/29 05:30:05;;;;;;;5.20;4.70;;;;;;;-0.43;92.21;96964.31;5114916;28;20443;-67
2020/12/29 05:32:36;;;;;;;5.67;4.83;;;;;;;-0.44;91.97;96969.72;5118623;28;20498;-66
2020/12/29 05:35:03;;;;;;;5.70;5.10;;;;;;;-0.45;92.19;96973.31;5115775;28;20461;-67
2020/12/29 05:37:30;;;;;;;5.03;4.53;;;;;;;-0.46;92.04;96972.50;5120684;28;20478;-68
2020/12/29 05:39:56;;;;;;;5.27;4.77;;;;;;;-0.38;92.51;96971.75;5123291;28;20450;-68
2020/12/29 05:42:26;;;;;;;5.90;5.10;;;;;;;-0.39;92.46;96980.59;5120109;28;20485;-69
2020/12/29 05:44:53;;;;;;;6.50;5.90;;;;;;;-0.26;91.99;96978.41;5121947;28;20507;-68
2020/12/29 05:47:20;;;;;;;7.57;5.67;;;;;;;-0.33;91.89;96985.25;5114886;28;20581;-68
2020/12/29 05:49:47;;;;;;;6.40;5.70;;;;;;;-0.32;91.85;96986.88;5122949;28;20473;-69
2020/12/29 05:52:14;;;;;;;7.00;6.30;;;;;;;-0.26;91.86;96994.16;5120519;28;20470;-68
2020/12/29 05:54:41;;;;;;;6.20;5.60;;;;;;;-0.30;91.30;96986.72;5123224;28;20473;-68
2020/12/29 05:57:07;;;;;;;6.53;5.77;;;;;;;-0.28;90.99;97001.34;5120607;28;20482;-67
2020/12/29 05:59:34;;;;;;;7.50;6.23;;;;;;;-0.44;91.14;97001.22;5122389;28;20460;-67
2020/12/29 06:02:00;;;;;;;7.53;5.90;;;;;;;-0.60;91.77;97005.34;5121096;28;20474;-67
2020/12/29 06:04:28;;;;;;;8.10;6.60;;;;;;;-0.59;91.57;96999.13;5120915;28;20451;-67
2020/12/29 06:06:59;;;;;;;7.57;6.50;;;;;;;-0.49;92.15;97003.47;5119431;28;20462;-67
2020/12/29 06:09:26;;;;;;;6.73;5.77;;;;;;;-0.39;92.24;97001.59;5114670;28;20499;-67
2020/12/29 06:11:55;;;;;;;11.60;7.10;;;;;;;-0.27;91.71;97007.41;5120569;28;20504;-67
2020/12/29 06:14:23;;;;;;;7.03;6.00;;;;;;;-0.12;91.30;97013.78;5120930;28;20826;-67
2020/12/29 06:16:50;;;;;;;9.70;7.40;;;;;;;-0.10;90.93;97018.88;5119947;28;20481;-67
2020/12/29 06:19:21;;;;;;;7.30;6.00;;;;;;;0.00;90.57;97022.22;5121965;28;20796;-67
2020/12/29 06:22:03;;;;;;;7.70;6.27;;;;;;;0.11;90.27;97026.41;5119910;28;21007;-67
2020/12/29 06:24:30;;;;;;;8.47;6.80;;;;;;;0.12;90.16;97028.03;5117863;28;20462;-67
2020/12/29 06:26:58;;;;;;;6.93;5.93;;;;;;;0.21;89.73;97040.25;5120043;28;20474;-67
2020/12/29 06:29:31;;;;;;;8.57;6.47;;;;;;;0.23;90.48;97042.75;5122418;28;20454;-68
2020/12/29 06:31:57;;;;;;;8.37;6.57;;;;;;;0.21;90.02;97039.41;5119697;28;20474;-69
2020/12/29 06:34:23;;;;;;;9.70;7.67;;;;;;;0.23;89.88;97048.00;5114979;28;20465;-69
2020/12/29 06:36:50;;;;;;;9.10;7.27;;;;;;;0.31;89.54;97053.28;5114508;27;20473;-69
2020/12/29 06:39:18;;;;;;;9.67;6.77;;;;;;;0.31;89.59;97051.50;5121257;28;20461;-69
2020/12/29 06:41:44;;;;;;;9.10;7.20;;;;;;;0.32;89.95;97053.13;5119730;28;20514;-69
2020/12/29 06:44:12;;;;;;;8.33;6.90;;;;;;;0.42;89.86;97055.66;5121049;28;20964;-69
2020/12/29 06:46:38;;;;;;;9.00;7.40;;;;;;;0.47;89.12;97056.03;5120104;28;20470;-69
2020/12/29 06:49:18;;;;;;;7.17;6.47;;;;;;;0.56;89.04;97062.16;5110251;28;20508;-69
2020/12/29 06:51:45;;;;;;;9.30;8.33;;;;;;;0.51;89.23;97064.41;5117973;28;20480;-69
2020/12/29 06:54:14;;;;;;;15.50;8.50;;;;;;;0.54;89.11;97064.94;5122232;28;20816;-69
2020/12/29 06:56:54;;;;;;;13.23;9.70;;;;;;;0.65;88.92;97066.44;5120483;27;20478;-75
2020/12/29 06:59:21;;;;;;;10.77;8.87;;;;;;;0.77;88.52;97066.19;5115217;28;20438;-69
2020/12/29 07:01:49;;;;;;;11.60;9.20;;;;;;;0.62;88.94;97074.66;5105059;28;20540;-67
2020/12/29 07:04:16;;;;;;;10.30;8.30;;;;;;;0.71;89.24;97080.78;5093512;28;20504;-67
2020/12/29 07:06:42;;;;;;;11.77;8.40;;;;;;;0.75;89.09;97082.13;5117995;27;20474;-68
2020/12/29 07:09:25;;;;;;;12.13;8.57;;;;;;;0.87;88.54;97090.56;5121866;28;20481;-67
2020/12/29 07:12:04;;;;;;;11.60;9.20;;;;;;;0.89;87.99;97085.97;5120288;28;20465;-64
2020/12/29 07:14:31;;;;;;;11.77;9.37;;;;;;;0.83;88.59;97095.28;5121000;28;20467;-73
2020/12/29 07:16:58;;;;;;;12.07;9.63;;;;;;;0.87;88.98;97095.84;5116846;28;20478;-74
2020/12/29 07:19:25;;;;;;;16.53;10.67;;;;;;;0.93;88.21;97095.19;5120921;28;20453;-73
2020/12/29 07:21:53;;;;;;;10.57;8.70;;;;;;;0.96;88.49;97104.59;5112540;27;20471;-73
2020/12/29 07:24:19;;;;;;;12.93;9.70;;;;;;;1.02;88.52;97109.19;5106138;28;20470;-72
2020/12/29 07:26:45;;;;;;;15.40;11.07;;;;;;;0.99;89.05;97114.75;5099403;28;20490;-71
2020/12/29 07:29:12;;;;;;;8.67;7.60;;;;;;;1.21;88.23;97108.94;5101292;28;20431;-72
2020/12/29 07:31:40;;;;;;;10.73;9.17;;;;;;;1.04;88.29;97118.59;5099003;28;20486;-70
2020/12/29 07:34:10;;;;;;;10.47;9.37;;;;;;;1.19;87.97;97120.63;5105749;28;20470;-71
2020/12/29 07:36:39;;;;;;;13.70;8.80;;;;;;;1.25;86.78;97115.56;5119602;28;20462;-72
2020/12/29 07:39:05;;;;;;;13.03;9.80;;;;;;;1.15;87.50;97121.91;5121578;28;20430;-72
2020/12/29 07:41:35;;;;;;;13.90;10.00;;;;;;;1.33;86.67;97127.91;5120219;28;20474;-72
2020/12/29 07:44:01;;;;;;;13.80;9.70;;;;;;;1.29;86.22;97132.66;5119922;28;20880;-72
2020/12/29 07:46:28;;;;;;;14.40;10.47;;;;;;;1.36;86.21;97135.50;5118486;27;20570;-72
2020/12/29 07:48:54;;;;;;;14.03;11.57;;;;;;;1.44;85.09;97139.94;5118339;28;20439;-73
2020/12/29 07:51:20;;;;;;;12.47;10.40;;;;;;;1.54;84.31;97140.63;5114326;27;20488;-71
2020/12/29 07:53:46;;;;;;;12.60;9.40;;;;;;;1.56;84.21;97151.81;5126698;27;20450;-71
2020/12/29 07:56:13;;;;;;;17.70;11.60;;;;;;;1.50;84.38;97152.47;5124661;27;20492;-72
2020/12/29 07:58:39;;;;;;;16.20;10.17;;;;;;;1.61;84.17;97152.16;5125619;27;20454;-71
2020/12/29 08:01:05;;;;;;;18.93;12.20;;;;;;;1.53;84.77;97156.59;5113938;28;20470;-72
2020/12/29 08:03:32;;;;;;;12.93;10.63;;;;;;;1.54;84.85;97160.88;5122160;28;20458;-74
2020/12/29 08:05:58;;;;;;;15.80;11.90;;;;;;;1.66;83.84;97178.03;5120508;27;20580;-74
2020/12/29 08:08:25;;;;;;;15.67;10.80;;;;;;;1.69;83.33;97175.91;5127091;27;20457;-74
2020/12/29 08:10:51;;;;;;;12.33;9.53;;;;;;;1.81;83.19;97180.88;5127358;27;20564;-74
2020/12/29 08:13:19;;;;;;;14.60;10.40;;;;;;;1.71;83.28;97182.81;5127104;27;20437;-74
2020/12/29 08:15:47;;;;;;;14.63;10.60;;;;;;;1.91;82.92;97183.34;5118506;27;20472;-70
2020/12/29 08:18:14;;;;;;;13.90;10.30;;;;;;;2.00;82.32;97185.03;5119449;27;20965;-70
2020/12/29 08:20:44;;;;;;;13.83;10.40;;;;;;;2.16;81.32;97186.88;5108933;27;20469;-73
2020/12/29 08:23:10;;;;;;;11.90;9.23;;;;;;;2.20;81.24;97188.19;5127706;27;20705;-73
2020/12/29 08:25:36;;;;;;;11.53;8.33;;;;;;;3.05;84.20;97203.63;5122961;27;20486;-73
2020/12/29 08:28:04;;;;;;;13.03;9.30;;;;;;;3.43;78.90;97203.06;5129327;27;20446;-70
2020/12/29 08:30:30;;;;;;;12.93;10.10;;;;;;;3.52;77.80;97208.13;5129204;27;20548;-70
2020/12/29 08:32:57;;;;;;;9.80;7.97;;;;;;;3.87;75.51;97210.44;5130798;27;20501;-72
2020/12/29 08:35:24;;;;;;;11.70;7.70;;;;;;;3.60;75.80;97222.31;5118012;27;20496;-73
2020/12/29 08:38:02;;;;;;;7.50;6.63;;;;;;;3.70;75.38;97225.56;5132280;27;20473;-74
2020/12/29 08:40:31;;;;;;;8.10;6.53;;;;;;;3.76;73.79;97232.81;5111460;28;20465;-71
2020/12/29 08:43:00;;;;;;;8.10;6.00;;;;;;;4.19;73.94;97245.66;5106675;28;20446;-71
2020/12/29 08:45:27;;;;;;;6.20;5.53;;;;;;;4.40;71.84;97240.53;5111863;27;20476;-74
2020/12/29 08:47:55;;;;;;;8.60;5.60;;;;;;;4.68;71.44;97237.38;5121927;28;20458;-69
2020/12/29 08:50:27;;;;;;;7.30;6.00;;;;;;;4.81;70.73;97250.00;5115199;28;20434;-68
2020/12/29 08:53:02;;;;;;;7.93;5.00;;;;;;;4.82;70.55;97249.81;5113467;28;20454;-68
2020/12/29 08:55:30;;;;;;;5.30;4.20;;;;;;;4.85;70.47;97262.72;5111859;27;20458;-69
2020/12/29 08:57:57;;;;;;;5.10;4.20;;;;;;;4.75;70.38;97256.84;5128478;27;20469;-71
2020/12/29 09:00:23;;;;;;;3.83;3.37;;;;;;;4.60;71.12;97255.94;5114375;28;20540;-69
2020/12/29 09:02:50;;;;;;;4.67;3.97;;;;;;;4.45;71.66;97269.94;5121058;28;20460;-71
2020/12/29 09:05:27;;;;;;;4.87;3.93;;;;;;;5.39;68.51;97267.03;5118267;28;20470;-70
2020/12/29 09:07:54;;;;;;;4.67;4.27;;;;;;;5.14;68.85;97279.69;5114846;28;20453;-66
2020/12/29 09:10:20;;;;;;;5.67;4.23;;;;;;;5.39;68.50;97279.44;5119095;28;20434;-68
2020/12/29 09:12:48;;;;;;;6.60;3.87;;;;;;;4.93;69.41;97290.97;5114502;28;20449;-68
2020/12/29 09:15:15;;;;;;;6.43;3.83;;;;;;;4.79;69.98;97294.34;5121103;27;20577;-68
2020/12/29 09:17:42;;;;;;;10.37;4.30;;;;;;;3.93;73.25;97305.72;5120449;28;20453;-68
2020/12/29 09:20:16;;;;;;;10.30;4.73;;;;;;;3.97;73.40;97311.50;5115674;27;20458;-71
2020/12/29 09:23:09;;;;;;;8.23;4.97;;;;;;;4.09;73.33;97314.59;5108259;28;20455;-68
2020/12/29 09:25:37;;;;;;;7.30;4.60;;;;;;;4.37;72.84;97325.53;5106877;27;20501;-68
2020/12/29 09:28:11;;;;;;;7.43;5.10;;;;;;;4.72;71.28;97339.22;5113280;27;20533;-68
2020/12/29 09:30:38;;;;;;;7.30;5.40;;;;;;;4.89;70.90;97335.47;5117254;27;20565;-66
2020/12/29 09:33:04;;;;;;;9.07;5.33;;;;;;;5.13;70.67;97333.66;5113017;27;20580;-68
2020/12/29 09:35:31;;;;;;;6.80;4.97;;;;;;;5.58;68.68;97333.75;5124687;27;20469;-75
2020/12/29 09:37:58;;;;;;;6.10;4.90;;;;;;;5.24;68.83;97343.84;5113833;27;20472;-73
2020/12/29 09:40:26;;;;;;;8.27;5.57;;;;;;;5.05;69.31;97349.59;5116878;27;20486;-67
2020/12/29 09:42:53;;;;;;;9.47;5.63;;;;;;;5.44;69.15;97348.63;5124383;27;20479;-68
2020/12/29 09:45:20;;;;;;;6.83;5.47;;;;;;;6.38;66.69;97345.47;5122808;27;20544;-70
2020/12/29 09:47:47;;;;;;;6.67;6.03;;;;;;;6.57;64.95;97350.19;5125637;27;20514;-69
2020/12/29 09:50:13;;;;;;;6.43;5.73;;;;;;;7.64;60.60;97359.19;5112982;28;20447;-68
2020/12/29 09:52:39;;;;;;;7.50;6.53;;;;;;;7.15;62.57;97360.81;5118883;27;20573;-70
2020/12/29 09:55:06;;;;;;;6.80;6.00;;;;;;;6.83;63.59;97372.75;5112044;28;20456;-67
2020/12/29 09:57:33;;;;;;;6.73;6.07;;;;;;;6.20;64.87;97373.22;5124132;27;20465;-67
2020/12/29 10:00:00;;;;;;;9.47;5.60;;;;;;;6.11;65.88;97374.34;5124374;27;20431;-66
2020/12/29 10:02:26;;;;;;;7.00;6.17;;;;;;;5.65;67.63;97383.19;5103150;28;20479;-67
2020/12/29 10:04:52;;;;;;;12.73;6.93;;;;;;;4.68;71.04;97393.50;5114779;27;20465;-69
2020/12/29 10:07:19;;;;;;;8.13;6.00;;;;;;;4.24;72.61;97396.69;5121474;27;20478;-71
2020/12/29 10:09:45;;;;;;;8.60;6.67;;;;;;;3.86;74.49;97392.00;5123919;27;20427;-72
2020/12/29 10:12:11;;;;;;;10.60;7.37;;;;;;;3.50;76.19;97400.28;5116072;27;20458;-73
2020/12/29 10:14:39;;;;;;;10.73;7.43;;;;;;;3.68;76.17;97400.13;5113930;27;20466;-74
2020/12/29 10:17:06;;;;;;;11.50;7.33;;;;;;;3.71;76.02;97402.41;5116932;28;20470;-69
2020/12/29 10:19:32;;;;;;;8.13;7.30;;;;;;;3.88;75.08;97399.75;5117389;28;20438;-74
2020/12/29 10:21:58;;;;;;;13.97;7.10;;;;;;;3.80;75.33;97413.78;5109404;28;20565;-73
2020/12/29 10:24:29;;;;;;;10.20;6.97;;;;;;;3.50;76.42;97405.56;5124366;27;20454;-69
2020/12/29 10:26:57;;;;;;;15.90;8.00;;;;;;;3.19;77.16;97410.69;5116364;28;20500;-68
2020/12/29 10:29:24;;;;;;;11.83;7.40;;;;;;;3.08;78.76;97414.47;5124197;27;20430;-71
2020/12/29 10:31:51;;;;;;;14.43;8.00;;;;;;;3.10;79.15;97406.38;5123252;27;20537;-73
2020/12/29 10:34:18;;;;;;;11.13;7.80;;;;;;;2.98;79.19;97409.31;5118979;28;20427;-72
2020/12/29 10:36:46;;;;;;;12.63;6.80;;;;;;;3.06;79.56;97405.88;5120838;27;20527;-71
2020/12/29 10:39:13;;;;;;;8.73;7.13;;;;;;;2.87;80.27;97411.47;5122995;27;20514;-69
2020/12/29 10:41:40;;;;;;;8.07;6.33;;;;;;;2.92;80.72;97417.09;5115329;27;20485;-76
2020/12/29 10:44:08;;;;;;;9.23;6.73;;;;;;;2.90;80.38;97414.63;5116859;28;20447;-70
2020/12/29 10:46:34;;;;;;;9.03;6.53;;;;;;;2.77;80.69;97417.69;5119137;27;20472;-71
2020/12/29 10:49:01;;;;;;;6.63;5.30;;;;;;;2.60;80.93;97414.22;5121061;27;20474;-71
2020/12/29 10:51:28;;;;;;;7.40;5.57;;;;;;;2.59;81.80;97414.38;5116316;28;20840;-69
2020/12/29 10:53:54;;;;;;;7.60;5.90;;;;;;;2.57;81.60;97411.88;5112689;27;20452;-70
2020/12/29 10:56:21;;;;;;;7.17;5.70;;;;;;;2.65;81.78;97416.34;5125401;27;21048;-68
2020/12/29 10:58:47;;;;;;;9.80;6.03;;;;;;;2.60;81.98;97422.13;5119745;27;20439;-70
2020/12/29 11:01:15;;;;;;;11.37;7.80;;;;;;;2.66;82.61;97427.72;5111537;27;20497;-69
2020/12/29 11:03:41;;;;;;;7.77;6.00;;;;;;;2.63;82.10;97424.41;5102617;28;20485;-70
2020/12/29 11:06:13;;;;;;;9.00;6.23;;;;;;;2.53;82.33;97430.81;5099291;27;20561;-70
2020/12/29 11:08:39;;;;;;;7.60;6.30;;;;;;;2.53;82.75;97429.00;5111876;28;20462;-73
2020/12/29 11:11:06;;;;;;;12.53;7.13;;;;;;;2.68;82.83;97426.59;5111137;28;20485;-75
2020/12/29 11:13:32;;;;;;;11.00;6.17;;;;;;;2.82;81.87;97433.06;5108401;28;20451;-73
2020/12/29 11:15:59;;;;;;;9.00;7.00;;;;;;;2.80;81.90;97437.69;5111744;28;20471;-70
2020/12/29 11:18:25;;;;;;;9.10;6.43;;;;;;;2.84;80.89;97436.34;5115328;28;20461;-73
2020/12/29 11:20:51;;;;;;;7.37;5.40;;;;;;;2.82;80.67;97439.16;5113851;28;20517;-70
2020/12/29 11:23:19;;;;;;;9.93;6.27;;;;;;;2.98;80.64;97448.09;5115083;28;20442;-68
2020/12/29 11:25:45;;;;;;;9.80;6.40;;;;;;;2.94;80.91;97452.06;5102982;27;20950;-68
2020/12/29 11:28:11;;;;;;;14.67;7.20;;;;;;;2.98;80.55;97448.91;5107541;28;20461;-67
2020/12/29 11:30:37;;;;;;;8.73;6.23;;;;;;;2.89;80.27;97444.63;5112189;27;21006;-69
2020/12/29 11:33:03;;;;;;;13.00;7.37;;;;;;;3.00;80.29;97451.41;5117042;28;20458;-67
2020/12/29 11:35:30;;;;;;;11.07;6.83;;;;;;;3.04;80.45;97452.75;5115148;27;20462;-67
2020/12/29 11:37:56;;;;;;;13.40;8.70;;;;;;;2.98;80.85;97448.91;5118046;28;20466;-67
2020/12/29 11:40:23;;;;;;;11.00;8.10;;;;;;;2.91;81.00;97452.38;5105502;28;20439;-67